sensor_id;sensor_type;location;lat;lon;timestamp;P1;durP1;ratioP1;P2;durP2;ratioP2
26335;SDS011;14047;50.936;4.654;2023-04-06T00:01:41;29.67;;;14.23;;
26335;SDS011;14047;50.936;4.654;2023-04-06T00:04:07;27.08;;;13.75;;
26335;SDS011;14047;50.936;4.654;2023-04-06T00:06:33;26.33;;;13.80;;
26335;SDS011;14047;50.936;4.654;2023-04-06T00:08:59;26.83;;;13.38;;
26335;SDS011;14047;50.936;4.654;2023-04-06T00:11:25;30.80;;;14.32;;
26335;SDS011;14047;50.936;4.654;2023-04-06T00:13:52;28.55;;;14.52;;
26335;SDS011;14047;50.936;4.654;2023-04-06T00:16:18;29.70;;;14.55;;
26335;SDS011;14047;50.936;4.654;2023-04-06T00:18:45;27.42;;;14.80;;
26335;SDS011;14047;50.936;4.654;2023-04-06T00:21:11;33.38;;;14.65;;
26335;SDS011;14047;50.936;4.654;2023-04-06T00:23:38;25.58;;;13.27;;
26335;SDS011;14047;50.936;4.654;2023-04-06T00:26:04;25.05;;;14.45;;
26335;SDS011;14047;50.936;4.654;2023-04-06T00:28:30;32.95;;;14.48;;
26335;SDS011;14047;50.936;4.654;2023-04-06T00:30:56;24.80;;;13.30;;
26335;SDS011;14047;50.936;4.654;2023-04-06T00:33:22;28.15;;;14.00;;
26335;SDS011;14047;50.936;4.654;2023-04-06T00:35:49;29.08;;;13.35;;
26335;SDS011;14047;50.936;4.654;2023-04-06T00:38:15;28.25;;;14.25;;
26335;SDS011;14047;50.936;4.654;2023-04-06T00:40:45;26.95;;;13.50;;
26335;SDS011;14047;50.936;4.654;2023-04-06T00:43:11;26.73;;;13.30;;
26335;SDS011;14047;50.936;4.654;2023-04-06T00:45:38;32.47;;;12.80;;
26335;SDS011;14047;50.936;4.654;2023-04-06T00:48:05;27.05;;;14.52;;
26335;SDS011;14047;50.936;4.654;2023-04-06T00:50:32;26.27;;;14.55;;
26335;SDS011;14047;50.936;4.654;2023-04-06T00:52:59;27.83;;;13.52;;
26335;SDS011;14047;50.936;4.654;2023-04-06T00:55:27;23.42;;;12.15;;
26335;SDS011;14047;50.936;4.654;2023-04-06T00:57:54;25.58;;;14.25;;
26335;SDS011;14047;50.936;4.654;2023-04-06T01:00:22;28.20;;;14.07;;
26335;SDS011;14047;50.936;4.654;2023-04-06T01:02:55;25.25;;;14.25;;
26335;SDS011;14047;50.936;4.654;2023-04-06T01:05:26;25.83;;;14.02;;
26335;SDS011;14047;50.936;4.654;2023-04-06T01:07:56;26.15;;;14.48;;
26335;SDS011;14047;50.936;4.654;2023-04-06T01:10:26;24.20;;;13.45;;
26335;SDS011;14047;50.936;4.654;2023-04-06T01:13:13;24.83;;;13.82;;
26335;SDS011;14047;50.936;4.654;2023-04-06T01:16:00;28.20;;;13.80;;
26335;SDS011;14047;50.936;4.654;2023-04-06T01:18:44;24.08;;;12.88;;
26335;SDS011;14047;50.936;4.654;2023-04-06T01:21:20;27.88;;;14.63;;
26335;SDS011;14047;50.936;4.654;2023-04-06T01:24:05;27.45;;;13.20;;
26335;SDS011;14047;50.936;4.654;2023-04-06T01:26:43;26.98;;;13.63;;
26335;SDS011;14047;50.936;4.654;2023-04-06T01:29:10;23.35;;;12.85;;
26335;SDS011;14047;50.936;4.654;2023-04-06T01:31:37;26.85;;;12.40;;
26335;SDS011;14047;50.936;4.654;2023-04-06T01:34:03;23.70;;;12.77;;
26335;SDS011;14047;50.936;4.654;2023-04-06T01:36:30;29.38;;;12.65;;
26335;SDS011;14047;50.936;4.654;2023-04-06T01:39:05;27.33;;;13.43;;
26335;SDS011;14047;50.936;4.654;2023-04-06T01:41:35;28.65;;;13.23;;
26335;SDS011;14047;50.936;4.654;2023-04-06T01:44:01;23.00;;;12.20;;
26335;SDS011;14047;50.936;4.654;2023-04-06T01:46:29;21.98;;;12.27;;
26335;SDS011;14047;50.936;4.654;2023-04-06T01:48:56;26.52;;;11.90;;
26335;SDS011;14047;50.936;4.654;2023-04-06T01:51:41;25.02;;;13.13;;
26335;SDS011;14047;50.936;4.654;2023-04-06T01:54:11;21.33;;;12.02;;
26335;SDS011;14047;50.936;4.654;2023-04-06T01:56:55;20.55;;;12.23;;
26335;SDS011;14047;50.936;4.654;2023-04-06T01:59:32;23.45;;;11.85;;
26335;SDS011;14047;50.936;4.654;2023-04-06T02:02:02;24.13;;;12.57;;
26335;SDS011;14047;50.936;4.654;2023-04-06T02:04:29;26.65;;;13.35;;
26335;SDS011;14047;50.936;4.654;2023-04-06T02:07:05;23.75;;;12.63;;
26335;SDS011;14047;50.936;4.654;2023-04-06T02:09:31;22.50;;;12.27;;
26335;SDS011;14047;50.936;4.654;2023-04-06T02:11:58;23.05;;;12.43;;
26335;SDS011;14047;50.936;4.654;2023-04-06T02:14:25;26.27;;;13.63;;
26335;SDS011;14047;50.936;4.654;2023-04-06T02:16:53;23.60;;;12.40;;
26335;SDS011;14047;50.936;4.654;2023-04-06T02:19:21;25.00;;;13.23;;
26335;SDS011;14047;50.936;4.654;2023-04-06T02:21:47;25.20;;;13.30;;
26335;SDS011;14047;50.936;4.654;2023-04-06T02:24:13;23.23;;;12.15;;
26335;SDS011;14047;50.936;4.654;2023-04-06T02:26:40;22.20;;;12.57;;
26335;SDS011;14047;50.936;4.654;2023-04-06T02:29:06;24.17;;;12.15;;
26335;SDS011;14047;50.936;4.654;2023-04-06T02:31:32;25.52;;;13.18;;
26335;SDS011;14047;50.936;4.654;2023-04-06T02:33:59;23.00;;;12.75;;
26335;SDS011;14047;50.936;4.654;2023-04-06T02:36:26;24.25;;;12.93;;
26335;SDS011;14047;50.936;4.654;2023-04-06T02:38:52;22.73;;;12.60;;
26335;SDS011;14047;50.936;4.654;2023-04-06T02:41:18;27.85;;;12.55;;
26335;SDS011;14047;50.936;4.654;2023-04-06T02:43:44;22.95;;;12.68;;
26335;SDS011;14047;50.936;4.654;2023-04-06T02:46:25;21.85;;;12.40;;
26335;SDS011;14047;50.936;4.654;2023-04-06T02:48:51;23.23;;;12.32;;
26335;SDS011;14047;50.936;4.654;2023-04-06T02:51:17;24.30;;;12.40;;
26335;SDS011;14047;50.936;4.654;2023-04-06T02:53:48;23.63;;;13.20;;
26335;SDS011;14047;50.936;4.654;2023-04-06T02:56:15;22.80;;;12.73;;
26335;SDS011;14047;50.936;4.654;2023-04-06T02:58:48;24.25;;;13.02;;
26335;SDS011;14047;50.936;4.654;2023-04-06T03:01:14;23.40;;;12.20;;
26335;SDS011;14047;50.936;4.654;2023-04-06T03:03:41;21.02;;;11.95;;
26335;SDS011;14047;50.936;4.654;2023-04-06T03:06:13;30.65;;;12.70;;
26335;SDS011;14047;50.936;4.654;2023-04-06T03:08:39;22.48;;;12.95;;
26335;SDS011;14047;50.936;4.654;2023-04-06T03:11:05;25.65;;;12.13;;
26335;SDS011;14047;50.936;4.654;2023-04-06T03:13:37;25.23;;;13.77;;
26335;SDS011;14047;50.936;4.654;2023-04-06T03:16:06;27.00;;;12.82;;
26335;SDS011;14047;50.936;4.654;2023-04-06T03:18:33;24.77;;;13.05;;
26335;SDS011;14047;50.936;4.654;2023-04-06T03:20:59;24.73;;;12.90;;
26335;SDS011;14047;50.936;4.654;2023-04-06T03:23:44;24.60;;;12.45;;
26335;SDS011;14047;50.936;4.654;2023-04-06T03:26:10;23.60;;;11.88;;
26335;SDS011;14047;50.936;4.654;2023-04-06T03:28:37;25.80;;;13.13;;
26335;SDS011;14047;50.936;4.654;2023-04-06T03:31:05;26.15;;;13.88;;
26335;SDS011;14047;50.936;4.654;2023-04-06T03:33:43;22.83;;;12.38;;
26335;SDS011;14047;50.936;4.654;2023-04-06T03:36:14;23.25;;;12.50;;
26335;SDS011;14047;50.936;4.654;2023-04-06T03:38:42;23.27;;;11.93;;
26335;SDS011;14047;50.936;4.654;2023-04-06T03:41:13;26.65;;;12.82;;
26335;SDS011;14047;50.936;4.654;2023-04-06T03:43:42;23.40;;;11.82;;
26335;SDS011;14047;50.936;4.654;2023-04-06T03:46:08;22.63;;;11.90;;
26335;SDS011;14047;50.936;4.654;2023-04-06T03:48:35;22.17;;;12.40;;
26335;SDS011;14047;50.936;4.654;2023-04-06T03:51:04;29.00;;;12.65;;
26335;SDS011;14047;50.936;4.654;2023-04-06T03:53:30;24.90;;;12.80;;
26335;SDS011;14047;50.936;4.654;2023-04-06T03:55:56;25.83;;;12.77;;
26335;SDS011;14047;50.936;4.654;2023-04-06T03:58:22;23.27;;;12.55;;
26335;SDS011;14047;50.936;4.654;2023-04-06T04:00:48;25.08;;;12.98;;
26335;SDS011;14047;50.936;4.654;2023-04-06T04:03:13;22.85;;;12.60;;
26335;SDS011;14047;50.936;4.654;2023-04-06T04:05:41;23.80;;;11.82;;
26335;SDS011;14047;50.936;4.654;2023-04-06T04:08:08;22.63;;;12.63;;
26335;SDS011;14047;50.936;4.654;2023-04-06T04:10:34;24.33;;;12.93;;
26335;SDS011;14047;50.936;4.654;2023-04-06T04:13:00;23.48;;;12.23;;
26335;SDS011;14047;50.936;4.654;2023-04-06T04:15:26;27.30;;;11.63;;
26335;SDS011;14047;50.936;4.654;2023-04-06T04:17:52;24.55;;;12.55;;
26335;SDS011;14047;50.936;4.654;2023-04-06T04:20:18;25.92;;;13.55;;
26335;SDS011;14047;50.936;4.654;2023-04-06T04:22:44;24.52;;;13.02;;
26335;SDS011;14047;50.936;4.654;2023-04-06T04:25:10;24.63;;;12.10;;
26335;SDS011;14047;50.936;4.654;2023-04-06T04:27:42;25.73;;;13.32;;
26335;SDS011;14047;50.936;4.654;2023-04-06T04:30:08;25.83;;;12.50;;
26335;SDS011;14047;50.936;4.654;2023-04-06T04:32:34;27.95;;;12.70;;
26335;SDS011;14047;50.936;4.654;2023-04-06T04:35:03;29.30;;;12.68;;
26335;SDS011;14047;50.936;4.654;2023-04-06T04:37:34;28.08;;;12.60;;
26335;SDS011;14047;50.936;4.654;2023-04-06T04:40:02;21.48;;;12.40;;
26335;SDS011;14047;50.936;4.654;2023-04-06T04:42:32;24.90;;;13.00;;
26335;SDS011;14047;50.936;4.654;2023-04-06T04:44:59;26.23;;;12.80;;
26335;SDS011;14047;50.936;4.654;2023-04-06T04:47:38;22.58;;;11.65;;
26335;SDS011;14047;50.936;4.654;2023-04-06T04:50:06;24.92;;;13.30;;
26335;SDS011;14047;50.936;4.654;2023-04-06T04:52:33;20.10;;;11.40;;
26335;SDS011;14047;50.936;4.654;2023-04-06T04:55:12;27.55;;;12.43;;
26335;SDS011;14047;50.936;4.654;2023-04-06T04:57:40;20.85;;;11.82;;
26335;SDS011;14047;50.936;4.654;2023-04-06T05:00:07;26.73;;;11.65;;
26335;SDS011;14047;50.936;4.654;2023-04-06T05:02:35;25.67;;;12.43;;
26335;SDS011;14047;50.936;4.654;2023-04-06T05:05:19;24.20;;;12.82;;
26335;SDS011;14047;50.936;4.654;2023-04-06T05:07:45;21.88;;;11.65;;
26335;SDS011;14047;50.936;4.654;2023-04-06T05:10:22;22.65;;;12.10;;
26335;SDS011;14047;50.936;4.654;2023-04-06T05:12:55;23.33;;;12.65;;
26335;SDS011;14047;50.936;4.654;2023-04-06T05:15:22;28.13;;;12.77;;
26335;SDS011;14047;50.936;4.654;2023-04-06T05:17:52;25.13;;;12.60;;
26335;SDS011;14047;50.936;4.654;2023-04-06T05:20:23;26.73;;;12.27;;
26335;SDS011;14047;50.936;4.654;2023-04-06T05:22:52;29.10;;;13.23;;
26335;SDS011;14047;50.936;4.654;2023-04-06T05:25:18;24.30;;;13.52;;
26335;SDS011;14047;50.936;4.654;2023-04-06T05:27:47;23.08;;;12.05;;
26335;SDS011;14047;50.936;4.654;2023-04-06T05:30:25;22.23;;;12.32;;
26335;SDS011;14047;50.936;4.654;2023-04-06T05:32:52;23.52;;;12.77;;
26335;SDS011;14047;50.936;4.654;2023-04-06T05:35:19;25.08;;;12.18;;
26335;SDS011;14047;50.936;4.654;2023-04-06T05:37:49;23.85;;;12.60;;
26335;SDS011;14047;50.936;4.654;2023-04-06T05:40:16;22.00;;;12.82;;
26335;SDS011;14047;50.936;4.654;2023-04-06T05:42:42;24.10;;;13.20;;
26335;SDS011;14047;50.936;4.654;2023-04-06T05:45:09;24.63;;;13.55;;
26335;SDS011;14047;50.936;4.654;2023-04-06T05:47:37;29.42;;;14.57;;
26335;SDS011;14047;50.936;4.654;2023-04-06T05:50:18;30.33;;;14.82;;
26335;SDS011;14047;50.936;4.654;2023-04-06T05:52:44;26.95;;;14.77;;
26335;SDS011;14047;50.936;4.654;2023-04-06T05:55:13;29.85;;;14.43;;
26335;SDS011;14047;50.936;4.654;2023-04-06T05:57:43;28.85;;;13.57;;
26335;SDS011;14047;50.936;4.654;2023-04-06T06:00:09;26.08;;;14.32;;
26335;SDS011;14047;50.936;4.654;2023-04-06T06:02:38;23.63;;;12.38;;
26335;SDS011;14047;50.936;4.654;2023-04-06T06:05:07;24.55;;;12.02;;
26335;SDS011;14047;50.936;4.654;2023-04-06T06:07:35;27.33;;;13.32;;
26335;SDS011;14047;50.936;4.654;2023-04-06T06:10:01;25.33;;;12.50;;
26335;SDS011;14047;50.936;4.654;2023-04-06T06:12:34;22.50;;;12.98;;
26335;SDS011;14047;50.936;4.654;2023-04-06T06:15:01;26.27;;;12.88;;
26335;SDS011;14047;50.936;4.654;2023-04-06T06:17:28;23.15;;;12.20;;
26335;SDS011;14047;50.936;4.654;2023-04-06T06:19:55;24.10;;;13.43;;
26335;SDS011;14047;50.936;4.654;2023-04-06T06:22:21;25.67;;;13.20;;
26335;SDS011;14047;50.936;4.654;2023-04-06T06:24:47;23.13;;;12.27;;
26335;SDS011;14047;50.936;4.654;2023-04-06T06:27:14;25.75;;;13.88;;
26335;SDS011;14047;50.936;4.654;2023-04-06T06:29:40;27.38;;;13.07;;
26335;SDS011;14047;50.936;4.654;2023-04-06T06:32:06;26.88;;;13.57;;
26335;SDS011;14047;50.936;4.654;2023-04-06T06:34:35;26.13;;;12.98;;
26335;SDS011;14047;50.936;4.654;2023-04-06T06:37:03;24.88;;;12.40;;
26335;SDS011;14047;50.936;4.654;2023-04-06T06:39:29;28.23;;;13.18;;
26335;SDS011;14047;50.936;4.654;2023-04-06T06:41:55;23.42;;;13.55;;
26335;SDS011;14047;50.936;4.654;2023-04-06T06:44:40;24.98;;;13.38;;
26335;SDS011;14047;50.936;4.654;2023-04-06T06:47:06;22.40;;;13.10;;
26335;SDS011;14047;50.936;4.654;2023-04-06T06:49:32;22.60;;;13.43;;
26335;SDS011;14047;50.936;4.654;2023-04-06T06:51:57;29.05;;;14.23;;
26335;SDS011;14047;50.936;4.654;2023-04-06T06:54:23;25.48;;;14.23;;
26335;SDS011;14047;50.936;4.654;2023-04-06T06:56:49;21.50;;;13.02;;
26335;SDS011;14047;50.936;4.654;2023-04-06T06:59:16;29.17;;;14.13;;
26335;SDS011;14047;50.936;4.654;2023-04-06T07:01:42;26.33;;;14.80;;
26335;SDS011;14047;50.936;4.654;2023-04-06T07:04:08;23.98;;;14.18;;
26335;SDS011;14047;50.936;4.654;2023-04-06T07:06:35;25.27;;;14.27;;
26335;SDS011;14047;50.936;4.654;2023-04-06T07:09:01;21.95;;;13.32;;
26335;SDS011;14047;50.936;4.654;2023-04-06T07:11:28;25.23;;;13.13;;
26335;SDS011;14047;50.936;4.654;2023-04-06T07:13:55;25.23;;;13.40;;
26335;SDS011;14047;50.936;4.654;2023-04-06T07:16:21;23.48;;;13.38;;
26335;SDS011;14047;50.936;4.654;2023-04-06T07:18:47;22.92;;;14.23;;
26335;SDS011;14047;50.936;4.654;2023-04-06T07:21:13;23.30;;;13.57;;
26335;SDS011;14047;50.936;4.654;2023-04-06T07:23:39;22.02;;;12.95;;
26335;SDS011;14047;50.936;4.654;2023-04-06T07:26:06;28.35;;;14.75;;
26335;SDS011;14047;50.936;4.654;2023-04-06T07:28:31;33.28;;;14.50;;
26335;SDS011;14047;50.936;4.654;2023-04-06T07:31:00;26.50;;;14.30;;
26335;SDS011;14047;50.936;4.654;2023-04-06T07:33:27;25.75;;;13.95;;
26335;SDS011;14047;50.936;4.654;2023-04-06T07:35:56;26.75;;;14.90;;
26335;SDS011;14047;50.936;4.654;2023-04-06T07:38:23;24.75;;;14.43;;
26335;SDS011;14047;50.936;4.654;2023-04-06T07:40:50;24.30;;;14.55;;
26335;SDS011;14047;50.936;4.654;2023-04-06T07:43:16;25.20;;;13.60;;
26335;SDS011;14047;50.936;4.654;2023-04-06T07:45:42;22.00;;;13.70;;
26335;SDS011;14047;50.936;4.654;2023-04-06T07:48:09;28.33;;;14.75;;
26335;SDS011;14047;50.936;4.654;2023-04-06T07:50:36;29.08;;;13.57;;
26335;SDS011;14047;50.936;4.654;2023-04-06T07:53:03;24.05;;;13.05;;
26335;SDS011;14047;50.936;4.654;2023-04-06T07:55:29;26.25;;;13.40;;
26335;SDS011;14047;50.936;4.654;2023-04-06T07:57:55;21.63;;;12.32;;
26335;SDS011;14047;50.936;4.654;2023-04-06T08:00:21;20.15;;;12.13;;
26335;SDS011;14047;50.936;4.654;2023-04-06T08:02:47;18.10;;;11.05;;
26335;SDS011;14047;50.936;4.654;2023-04-06T08:05:13;25.15;;;12.02;;
26335;SDS011;14047;50.936;4.654;2023-04-06T08:07:39;21.88;;;11.50;;
26335;SDS011;14047;50.936;4.654;2023-04-06T08:10:05;22.45;;;12.50;;
26335;SDS011;14047;50.936;4.654;2023-04-06T08:12:32;21.88;;;11.73;;
26335;SDS011;14047;50.936;4.654;2023-04-06T08:14:59;22.52;;;13.27;;
26335;SDS011;14047;50.936;4.654;2023-04-06T08:17:25;23.17;;;11.85;;
26335;SDS011;14047;50.936;4.654;2023-04-06T08:19:52;22.45;;;11.38;;
26335;SDS011;14047;50.936;4.654;2023-04-06T08:22:18;20.35;;;10.88;;
26335;SDS011;14047;50.936;4.654;2023-04-06T08:24:44;17.38;;;10.93;;
26335;SDS011;14047;50.936;4.654;2023-04-06T08:27:10;18.75;;;11.00;;
26335;SDS011;14047;50.936;4.654;2023-04-06T08:29:36;19.80;;;10.57;;
26335;SDS011;14047;50.936;4.654;2023-04-06T08:32:02;17.52;;;10.02;;
26335;SDS011;14047;50.936;4.654;2023-04-06T08:34:31;19.10;;;10.52;;
26335;SDS011;14047;50.936;4.654;2023-04-06T08:37:00;17.88;;;10.18;;
26335;SDS011;14047;50.936;4.654;2023-04-06T08:39:27;14.02;;;9.18;;
26335;SDS011;14047;50.936;4.654;2023-04-06T08:41:53;23.17;;;9.90;;
26335;SDS011;14047;50.936;4.654;2023-04-06T08:44:22;20.65;;;10.18;;
26335;SDS011;14047;50.936;4.654;2023-04-06T08:46:48;15.05;;;9.10;;
26335;SDS011;14047;50.936;4.654;2023-04-06T08:49:16;23.33;;;10.02;;
26335;SDS011;14047;50.936;4.654;2023-04-06T08:51:42;19.67;;;11.65;;
26335;SDS011;14047;50.936;4.654;2023-04-06T08:54:07;18.42;;;10.50;;
26335;SDS011;14047;50.936;4.654;2023-04-06T08:56:36;17.73;;;10.80;;
26335;SDS011;14047;50.936;4.654;2023-04-06T08:59:03;17.35;;;10.65;;
26335;SDS011;14047;50.936;4.654;2023-04-06T09:01:31;20.08;;;11.00;;
26335;SDS011;14047;50.936;4.654;2023-04-06T09:03:59;20.77;;;10.77;;
26335;SDS011;14047;50.936;4.654;2023-04-06T09:06:26;22.98;;;11.85;;
26335;SDS011;14047;50.936;4.654;2023-04-06T09:08:52;16.25;;;9.88;;
26335;SDS011;14047;50.936;4.654;2023-04-06T09:11:18;23.30;;;11.52;;
26335;SDS011;14047;50.936;4.654;2023-04-06T09:13:48;23.65;;;11.40;;
26335;SDS011;14047;50.936;4.654;2023-04-06T09:16:16;18.77;;;11.60;;
26335;SDS011;14047;50.936;4.654;2023-04-06T09:18:43;18.45;;;11.07;;
26335;SDS011;14047;50.936;4.654;2023-04-06T09:21:09;18.88;;;10.32;;
26335;SDS011;14047;50.936;4.654;2023-04-06T09:23:36;21.48;;;11.70;;
26335;SDS011;14047;50.936;4.654;2023-04-06T09:26:21;20.60;;;11.40;;
26335;SDS011;14047;50.936;4.654;2023-04-06T09:28:52;18.75;;;9.95;;
26335;SDS011;14047;50.936;4.654;2023-04-06T09:31:29;16.92;;;11.02;;
26335;SDS011;14047;50.936;4.654;2023-04-06T09:33:58;20.77;;;10.98;;
26335;SDS011;14047;50.936;4.654;2023-04-06T09:36:32;18.30;;;11.50;;
26335;SDS011;14047;50.936;4.654;2023-04-06T09:39:03;20.27;;;12.05;;
26335;SDS011;14047;50.936;4.654;2023-04-06T09:41:36;20.90;;;11.43;;
26335;SDS011;14047;50.936;4.654;2023-04-06T09:44:03;18.40;;;11.10;;
26335;SDS011;14047;50.936;4.654;2023-04-06T09:46:43;19.65;;;11.35;;
26335;SDS011;14047;50.936;4.654;2023-04-06T09:49:11;22.65;;;11.38;;
26335;SDS011;14047;50.936;4.654;2023-04-06T09:51:48;19.65;;;11.68;;
26335;SDS011;14047;50.936;4.654;2023-04-06T09:54:21;19.08;;;11.88;;
26335;SDS011;14047;50.936;4.654;2023-04-06T10:05:20;20.92;;;12.05;;
26335;SDS011;14047;50.936;4.654;2023-04-06T10:07:53;17.35;;;11.15;;
26335;SDS011;14047;50.936;4.654;2023-04-06T10:10:22;21.42;;;11.82;;
26335;SDS011;14047;50.936;4.654;2023-04-06T10:12:48;19.38;;;10.68;;
26335;SDS011;14047;50.936;4.654;2023-04-06T10:15:15;20.58;;;10.77;;
26335;SDS011;14047;50.936;4.654;2023-04-06T10:17:42;18.92;;;10.70;;
26335;SDS011;14047;50.936;4.654;2023-04-06T10:20:10;19.65;;;10.45;;
26335;SDS011;14047;50.936;4.654;2023-04-06T10:22:43;19.63;;;10.15;;
26335;SDS011;14047;50.936;4.654;2023-04-06T10:25:37;16.13;;;9.30;;
26335;SDS011;14047;50.936;4.654;2023-04-06T10:28:07;19.40;;;10.15;;
26335;SDS011;14047;50.936;4.654;2023-04-06T10:30:34;14.20;;;9.43;;
26335;SDS011;14047;50.936;4.654;2023-04-06T10:33:13;14.95;;;9.70;;
26335;SDS011;14047;50.936;4.654;2023-04-06T10:35:43;15.15;;;9.43;;
26335;SDS011;14047;50.936;4.654;2023-04-06T10:38:09;14.52;;;8.38;;
26335;SDS011;14047;50.936;4.654;2023-04-06T10:40:37;13.65;;;8.32;;
26335;SDS011;14047;50.936;4.654;2023-04-06T10:43:14;17.55;;;8.38;;
26335;SDS011;14047;50.936;4.654;2023-04-06T10:45:44;14.02;;;8.40;;
26335;SDS011;14047;50.936;4.654;2023-04-06T10:48:22;13.95;;;8.43;;
26335;SDS011;14047;50.936;4.654;2023-04-06T10:50:50;16.23;;;8.43;;
26335;SDS011;14047;50.936;4.654;2023-04-06T10:53:26;16.08;;;9.05;;
26335;SDS011;14047;50.936;4.654;2023-04-06T10:55:54;15.77;;;8.55;;
26335;SDS011;14047;50.936;4.654;2023-04-06T10:58:25;15.68;;;8.82;;
26335;SDS011;14047;50.936;4.654;2023-04-06T11:00:52;14.48;;;8.82;;
26335;SDS011;14047;50.936;4.654;2023-04-06T11:03:20;16.88;;;9.77;;
26335;SDS011;14047;50.936;4.654;2023-04-06T11:05:47;16.30;;;9.52;;
26335;SDS011;14047;50.936;4.654;2023-04-06T11:08:30;16.63;;;8.65;;
26335;SDS011;14047;50.936;4.654;2023-04-06T11:11:07;14.05;;;8.82;;
26335;SDS011;14047;50.936;4.654;2023-04-06T11:13:40;14.40;;;9.18;;
26335;SDS011;14047;50.936;4.654;2023-04-06T11:16:14;16.40;;;9.77;;
26335;SDS011;14047;50.936;4.654;2023-04-06T11:21:30;16.15;;;9.07;;
26335;SDS011;14047;50.936;4.654;2023-04-06T11:26:41;15.05;;;9.05;;
26335;SDS011;14047;50.936;4.654;2023-04-06T11:29:09;14.70;;;9.25;;
26335;SDS011;14047;50.936;4.654;2023-04-06T11:31:40;15.00;;;9.07;;
26335;SDS011;14047;50.936;4.654;2023-04-06T11:34:15;13.95;;;8.88;;
26335;SDS011;14047;50.936;4.654;2023-04-06T11:36:43;16.63;;;9.15;;
26335;SDS011;14047;50.936;4.654;2023-04-06T11:39:10;14.00;;;8.60;;
26335;SDS011;14047;50.936;4.654;2023-04-06T11:41:38;14.55;;;8.77;;
26335;SDS011;14047;50.936;4.654;2023-04-06T11:44:05;15.43;;;8.38;;
26335;SDS011;14047;50.936;4.654;2023-04-06T11:46:31;12.70;;;9.13;;
26335;SDS011;14047;50.936;4.654;2023-04-06T11:48:57;11.75;;;8.18;;
26335;SDS011;14047;50.936;4.654;2023-04-06T11:51:26;14.70;;;8.20;;
26335;SDS011;14047;50.936;4.654;2023-04-06T11:53:53;12.30;;;7.85;;
26335;SDS011;14047;50.936;4.654;2023-04-06T11:56:26;14.30;;;8.90;;
26335;SDS011;14047;50.936;4.654;2023-04-06T11:58:56;13.13;;;8.43;;
26335;SDS011;14047;50.936;4.654;2023-04-06T12:01:25;11.82;;;8.07;;
26335;SDS011;14047;50.936;4.654;2023-04-06T12:03:51;14.43;;;8.40;;
26335;SDS011;14047;50.936;4.654;2023-04-06T12:06:18;13.63;;;8.70;;
26335;SDS011;14047;50.936;4.654;2023-04-06T12:08:44;13.57;;;9.00;;
26335;SDS011;14047;50.936;4.654;2023-04-06T12:11:11;15.10;;;8.38;;
26335;SDS011;14047;50.936;4.654;2023-04-06T12:13:37;13.98;;;8.80;;
26335;SDS011;14047;50.936;4.654;2023-04-06T12:16:03;13.93;;;8.05;;
26335;SDS011;14047;50.936;4.654;2023-04-06T12:18:29;12.93;;;8.77;;
26335;SDS011;14047;50.936;4.654;2023-04-06T12:20:56;15.07;;;9.52;;
26335;SDS011;14047;50.936;4.654;2023-04-06T12:23:21;16.70;;;9.88;;
26335;SDS011;14047;50.936;4.654;2023-04-06T12:25:47;15.35;;;9.77;;
26335;SDS011;14047;50.936;4.654;2023-04-06T12:28:13;13.45;;;8.82;;
26335;SDS011;14047;50.936;4.654;2023-04-06T12:30:39;13.52;;;9.02;;
26335;SDS011;14047;50.936;4.654;2023-04-06T12:33:08;17.10;;;9.32;;
26335;SDS011;14047;50.936;4.654;2023-04-06T12:35:34;17.48;;;9.05;;
26335;SDS011;14047;50.936;4.654;2023-04-06T12:38:00;14.27;;;8.85;;
26335;SDS011;14047;50.936;4.654;2023-04-06T12:40:29;12.70;;;8.40;;
26335;SDS011;14047;50.936;4.654;2023-04-06T12:42:55;14.32;;;8.27;;
26335;SDS011;14047;50.936;4.654;2023-04-06T12:45:21;14.77;;;8.98;;
26335;SDS011;14047;50.936;4.654;2023-04-06T12:47:47;14.45;;;8.20;;
26335;SDS011;14047;50.936;4.654;2023-04-06T12:50:13;14.38;;;8.45;;
26335;SDS011;14047;50.936;4.654;2023-04-06T12:52:39;15.05;;;9.02;;
26335;SDS011;14047;50.936;4.654;2023-04-06T12:55:05;11.68;;;8.90;;
26335;SDS011;14047;50.936;4.654;2023-04-06T12:57:32;16.02;;;9.30;;
26335;SDS011;14047;50.936;4.654;2023-04-06T12:59:58;10.82;;;7.60;;
26335;SDS011;14047;50.936;4.654;2023-04-06T13:02:23;14.13;;;9.25;;
26335;SDS011;14047;50.936;4.654;2023-04-06T13:04:50;16.58;;;8.38;;
26335;SDS011;14047;50.936;4.654;2023-04-06T13:07:16;13.00;;;9.27;;
26335;SDS011;14047;50.936;4.654;2023-04-06T13:09:42;13.77;;;9.10;;
26335;SDS011;14047;50.936;4.654;2023-04-06T13:12:07;14.98;;;9.23;;
26335;SDS011;14047;50.936;4.654;2023-04-06T13:14:33;16.98;;;9.85;;
26335;SDS011;14047;50.936;4.654;2023-04-06T13:16:59;13.20;;;9.00;;
26335;SDS011;14047;50.936;4.654;2023-04-06T13:19:25;14.75;;;9.80;;
26335;SDS011;14047;50.936;4.654;2023-04-06T13:21:52;13.88;;;9.13;;
26335;SDS011;14047;50.936;4.654;2023-04-06T13:24:18;13.00;;;9.32;;
26335;SDS011;14047;50.936;4.654;2023-04-06T13:26:44;17.52;;;9.50;;
26335;SDS011;14047;50.936;4.654;2023-04-06T13:29:10;18.25;;;9.52;;
26335;SDS011;14047;50.936;4.654;2023-04-06T13:31:36;15.15;;;9.70;;
26335;SDS011;14047;50.936;4.654;2023-04-06T13:34:04;14.38;;;9.80;;
26335;SDS011;14047;50.936;4.654;2023-04-06T13:36:30;16.10;;;10.00;;
26335;SDS011;14047;50.936;4.654;2023-04-06T13:38:57;14.77;;;9.52;;
26335;SDS011;14047;50.936;4.654;2023-04-06T13:41:24;17.70;;;10.43;;
26335;SDS011;14047;50.936;4.654;2023-04-06T13:43:52;15.38;;;10.20;;
26335;SDS011;14047;50.936;4.654;2023-04-06T13:46:18;19.33;;;10.23;;
26335;SDS011;14047;50.936;4.654;2023-04-06T13:48:44;19.60;;;10.65;;
26335;SDS011;14047;50.936;4.654;2023-04-06T13:51:10;16.45;;;11.07;;
26335;SDS011;14047;50.936;4.654;2023-04-06T13:53:37;22.10;;;14.30;;
26335;SDS011;14047;50.936;4.654;2023-04-06T13:56:04;21.60;;;14.63;;
26335;SDS011;14047;50.936;4.654;2023-04-06T13:58:30;22.00;;;15.07;;
26335;SDS011;14047;50.936;4.654;2023-04-06T14:01:03;27.88;;;17.98;;
26335;SDS011;14047;50.936;4.654;2023-04-06T14:03:37;23.67;;;14.77;;
26335;SDS011;14047;50.936;4.654;2023-04-06T14:06:11;21.77;;;14.45;;
26335;SDS011;14047;50.936;4.654;2023-04-06T14:08:38;19.15;;;12.70;;
26335;SDS011;14047;50.936;4.654;2023-04-06T14:11:03;17.75;;;12.23;;
26335;SDS011;14047;50.936;4.654;2023-04-06T14:13:30;19.90;;;10.88;;
26335;SDS011;14047;50.936;4.654;2023-04-06T14:15:55;21.13;;;11.65;;
26335;SDS011;14047;50.936;4.654;2023-04-06T14:18:22;18.40;;;11.20;;
26335;SDS011;14047;50.936;4.654;2023-04-06T14:20:54;21.20;;;11.70;;
26335;SDS011;14047;50.936;4.654;2023-04-06T14:23:21;17.40;;;12.00;;
26335;SDS011;14047;50.936;4.654;2023-04-06T14:25:47;20.38;;;12.50;;
26335;SDS011;14047;50.936;4.654;2023-04-06T14:28:13;17.92;;;11.93;;
26335;SDS011;14047;50.936;4.654;2023-04-06T14:30:39;18.50;;;11.70;;
26335;SDS011;14047;50.936;4.654;2023-04-06T14:33:05;20.95;;;12.32;;
26335;SDS011;14047;50.936;4.654;2023-04-06T14:35:32;17.95;;;12.55;;
26335;SDS011;14047;50.936;4.654;2023-04-06T14:37:58;18.05;;;11.50;;
26335;SDS011;14047;50.936;4.654;2023-04-06T14:40:24;19.27;;;11.23;;
26335;SDS011;14047;50.936;4.654;2023-04-06T14:42:50;18.63;;;10.93;;
26335;SDS011;14047;50.936;4.654;2023-04-06T14:45:17;17.88;;;11.80;;